Řízení letového provozu České republiky
Letiste: LKPD Aktualizace: 11.12.2019 04:00:25  UTC
 METAR LKPD 11.12. 04:00 ...
METAR LKPD 110400Z 10003KT CAVOK M05/M07 Q1021 NOSIG RMK BLU BLU=
 TAF LKPD 10.12. 23:00 ...
TAF LKPD 102300Z 1100/1200 VRB02KT CAVOK      PROB30 TEMPO 1102/1107 3000 BR BKN008      BECMG 1106/1108 12006KT      BECMG 1121/1123 VRB02KT=